Time;durP1;ratioP1;P1;durP2;ratioP2;P2;SDS_P1;SDS_P2;PMS_P1;PMS_P2;Temp;Humidity;BMP_temperature;BMP_pressure;BME280_temperature;BME280_humidity;BME280_pressure;Samples;Min_cycle;Max_cycle;Signal;HPM_P1;HPM_P2
2022/12/03 00:01:33;;;;;;;17.45;11.70;;;;;;;6.88;73.91;95328.63;4164445;28;20127;-53
2022/12/03 00:03:35;;;;;;;15.98;10.10;;;;;;;6.88;73.87;95331.22;4168401;28;20079;-51
2022/12/03 00:05:37;;;;;;;15.95;10.98;;;;;;;6.91;74.50;95334.44;4173496;28;20211;-57
2022/12/03 00:07:48;;;;;;;17.63;11.15;;;;;;;6.86;73.71;95341.78;4176906;28;20055;-55
2022/12/03 00:09:50;;;;;;;16.13;11.32;;;;;;;6.91;73.91;95344.03;4167191;28;20052;-59
2022/12/03 00:11:52;;;;;;;17.17;11.52;;;;;;;6.89;73.76;95346.75;4156165;28;20393;-55
2022/12/03 00:13:53;;;;;;;14.57;10.40;;;;;;;6.92;73.95;95349.09;4163486;28;20493;-54
2022/12/03 00:15:55;;;;;;;15.60;10.82;;;;;;;6.95;73.35;95351.47;4158630;28;20050;-56
2022/12/03 00:17:57;;;;;;;15.15;10.10;;;;;;;6.96;73.67;95353.13;4154856;28;20062;-56
2022/12/03 00:19:58;;;;;;;14.05;10.15;;;;;;;6.99;73.71;95357.28;4158195;28;20393;-56
2022/12/03 00:22:00;;;;;;;17.20;10.75;;;;;;;7.00;73.45;95353.72;4148422;28;20057;-53
2022/12/03 00:24:02;;;;;;;14.13;10.23;;;;;;;6.92;73.05;95362.13;4160349;28;20148;-55
2022/12/03 00:26:04;;;;;;;14.80;10.63;;;;;;;6.91;73.38;95360.47;4171877;28;20068;-54
2022/12/03 00:28:06;;;;;;;14.68;10.45;;;;;;;6.95;73.39;95355.88;4162195;28;20053;-57
2022/12/03 00:30:09;;;;;;;15.48;10.40;;;;;;;6.96;73.40;95355.72;4173447;28;20060;-56
2022/12/03 00:32:11;;;;;;;15.25;10.52;;;;;;;6.96;73.10;95358.34;4164903;28;20618;-54
2022/12/03 00:34:12;;;;;;;16.95;10.18;;;;;;;6.97;73.29;95354.78;4168742;28;20053;-55
2022/12/03 00:36:14;;;;;;;14.20;10.18;;;;;;;6.97;72.99;95361.78;4160201;28;20520;-54
2022/12/03 00:38:16;;;;;;;15.77;9.88;;;;;;;7.01;73.06;95357.16;4161706;28;20470;-54
2022/12/03 00:40:17;;;;;;;14.90;10.35;;;;;;;7.00;73.06;95360.72;4177123;28;20045;-55
2022/12/03 00:42:19;;;;;;;15.32;10.25;;;;;;;6.98;73.26;95356.44;4155878;28;20065;-54
2022/12/03 00:44:21;;;;;;;19.17;11.27;;;;;;;6.96;73.25;95360.13;4161636;28;20148;-53
2022/12/03 00:46:24;;;;;;;15.50;11.05;;;;;;;6.98;73.49;95366.84;4160377;28;20504;-51
2022/12/03 00:48:25;;;;;;;17.88;11.20;;;;;;;7.01;72.90;95367.56;4161006;28;20148;-56
2022/12/03 00:50:27;;;;;;;15.10;10.98;;;;;;;6.96;73.09;95362.72;4149332;28;20050;-56
2022/12/03 00:52:29;;;;;;;17.15;11.55;;;;;;;7.00;73.10;95376.34;4177114;28;20048;-54
2022/12/03 00:54:30;;;;;;;15.00;11.07;;;;;;;7.00;73.21;95374.56;4176938;28;20045;-55
2022/12/03 00:56:33;;;;;;;14.98;11.15;;;;;;;6.98;72.88;95381.66;4152801;28;20063;-54
2022/12/03 00:58:35;;;;;;;17.25;11.55;;;;;;;6.99;73.35;95383.34;4161157;28;20126;-55
2022/12/03 01:00:36;;;;;;;18.77;11.55;;;;;;;6.97;73.08;95391.25;4170992;28;20129;-55
2022/12/03 01:02:38;;;;;;;19.10;11.70;;;;;;;6.97;73.29;95383.44;4160229;28;20486;-55
2022/12/03 01:04:40;;;;;;;17.52;11.73;;;;;;;6.99;72.96;95388.53;4161477;28;20561;-55
2022/12/03 01:06:42;;;;;;;15.02;10.95;;;;;;;6.99;73.04;95385.94;4173538;28;20489;-54
2022/12/03 01:08:43;;;;;;;16.30;11.35;;;;;;;6.98;73.32;95387.69;4166005;28;20472;-55
2022/12/03 01:10:45;;;;;;;17.60;12.35;;;;;;;6.98;73.14;95382.47;4168587;28;20493;-56
2022/12/03 01:12:47;;;;;;;18.58;12.20;;;;;;;6.97;73.53;95393.03;4168347;28;20059;-54
2022/12/03 01:14:48;;;;;;;17.02;11.05;;;;;;;6.97;73.04;95395.66;4150250;28;20082;-56
2022/12/03 01:16:50;;;;;;;18.83;12.57;;;;;;;6.95;73.21;95400.97;4175418;28;20757;-52
2022/12/03 01:18:52;;;;;;;17.67;12.10;;;;;;;6.97;73.34;95395.66;4167159;28;20494;-55
2022/12/03 01:20:54;;;;;;;20.15;13.13;;;;;;;7.00;73.59;95395.41;4160848;28;20058;-52
2022/12/03 01:22:55;;;;;;;20.38;12.73;;;;;;;7.03;73.05;95395.16;4158925;28;20053;-55
2022/12/03 01:24:57;;;;;;;17.80;11.57;;;;;;;7.01;72.56;95393.63;4144397;28;20053;-53
2022/12/03 01:26:59;;;;;;;16.65;11.85;;;;;;;7.00;73.38;95403.22;4152575;28;20088;-53
2022/12/03 01:29:01;;;;;;;14.88;10.88;;;;;;;6.95;73.09;95398.38;4152957;28;20053;-54
2022/12/03 01:33:23;;;;;;;16.15;11.23;;;;;;;6.95;73.47;95403.56;4145720;28;20046;-53
2022/12/03 01:35:25;;;;;;;17.92;12.20;;;;;;;6.97;73.46;95401.69;4163220;28;20191;-55
2022/12/03 01:37:27;;;;;;;16.92;11.57;;;;;;;6.95;73.50;95398.38;4163378;28;20060;-56
2022/12/03 01:39:29;;;;;;;18.77;11.98;;;;;;;6.98;73.25;95403.31;4160017;28;20073;-55
2022/12/03 01:41:31;;;;;;;18.88;12.30;;;;;;;6.97;73.25;95396.47;4160127;28;20144;-54
2022/12/03 01:43:33;;;;;;;17.80;11.82;;;;;;;6.98;73.48;95394.69;4157755;28;20100;-53
2022/12/03 01:45:35;;;;;;;18.95;12.80;;;;;;;7.00;73.49;95395.41;4158035;28;20065;-55
2022/12/03 01:47:37;;;;;;;15.60;11.52;;;;;;;7.01;73.14;95397.03;4147723;28;20049;-53
2022/12/03 01:49:48;;;;;;;18.55;10.98;;;;;;;7.04;73.11;95396.81;4160323;28;20137;-54
2022/12/03 01:51:51;;;;;;;17.10;11.68;;;;;;;7.02;73.03;95403.09;4158978;28;20223;-54
2022/12/03 01:53:53;;;;;;;16.45;11.40;;;;;;;7.02;73.23;95401.31;4157548;28;20065;-54
2022/12/03 01:55:54;;;;;;;16.60;11.18;;;;;;;7.00;73.39;95397.19;4159643;28;20053;-55
2022/12/03 01:57:58;;;;;;;17.98;10.95;;;;;;;6.97;73.35;95393.88;4159150;28;20146;-56
2022/12/03 02:00:00;;;;;;;16.27;11.52;;;;;;;6.96;73.68;95388.78;4158225;28;20567;-54
2022/12/03 02:02:11;;;;;;;15.93;10.75;;;;;;;6.97;73.44;95385.22;4159410;28;20132;-56
2022/12/03 02:04:15;;;;;;;20.25;12.60;;;;;;;6.97;73.58;95386.06;4160230;28;20063;-53
2022/12/03 02:06:19;;;;;;;16.17;10.77;;;;;;;6.96;73.37;95389.59;4158817;28;20470;-55
2022/12/03 02:08:39;;;;;;;15.90;10.30;;;;;;;6.86;73.46;95388.66;4160137;28;20053;-54
2022/12/03 02:10:41;;;;;;;17.92;10.57;;;;;;;6.82;73.67;95386.41;4147727;28;20088;-55
2022/12/03 02:12:57;;;;;;;15.75;10.90;;;;;;;6.84;74.25;95390.56;4158792;28;20104;-53
2022/12/03 02:14:59;;;;;;;16.50;10.55;;;;;;;6.84;74.02;95393.16;4148390;28;20284;-57
2022/12/03 02:17:01;;;;;;;16.75;11.57;;;;;;;6.88;73.81;95388.53;4151069;28;20053;-52
2022/12/03 02:19:04;;;;;;;16.63;11.70;;;;;;;6.86;74.22;95393.88;4156591;28;20099;-55
2022/12/03 02:21:39;;;;;;;15.90;11.13;;;;;;;6.85;73.95;95394.00;4161360;28;20293;-53
2022/12/03 02:23:50;;;;;;;16.50;11.95;;;;;;;6.84;73.49;95390.56;4157665;28;20103;-55
2022/12/03 02:25:52;;;;;;;19.02;11.45;;;;;;;6.80;73.79;95386.53;4164991;28;20434;-55
2022/12/03 02:27:54;;;;;;;16.30;11.80;;;;;;;6.81;74.18;95388.19;4154966;28;20467;-52
2022/12/03 02:29:56;;;;;;;17.15;12.10;;;;;;;6.82;74.09;95395.06;4161486;28;20230;-52
2022/12/03 02:31:57;;;;;;;18.98;12.10;;;;;;;6.81;74.13;95384.75;4146072;28;20050;-54
2022/12/03 02:34:06;;;;;;;17.15;11.98;;;;;;;6.81;74.04;95382.16;4159350;28;20099;-54
2022/12/03 02:36:09;;;;;;;18.05;11.57;;;;;;;6.81;74.09;95377.75;4158870;28;20060;-55
2022/12/03 02:38:19;;;;;;;17.33;11.85;;;;;;;6.81;74.54;95382.97;4162881;28;20091;-56
2022/12/03 02:40:23;;;;;;;18.00;11.52;;;;;;;6.82;74.08;95378.59;4160051;28;20050;-55
2022/12/03 02:42:34;;;;;;;15.77;10.95;;;;;;;6.77;73.96;95384.16;4159802;28;20061;-55
2022/12/03 02:44:36;;;;;;;16.08;10.77;;;;;;;6.76;74.37;95392.94;4155172;28;20046;-55
2022/12/03 02:46:38;;;;;;;16.42;11.10;;;;;;;6.75;74.33;95397.31;4146078;28;20045;-54
2022/12/03 02:48:40;;;;;;;14.95;10.60;;;;;;;6.73;74.16;95393.16;4159452;28;20045;-54
2022/12/03 02:50:49;;;;;;;16.73;11.02;;;;;;;6.72;73.93;95392.31;4166209;28;20196;-56
2022/12/03 02:52:52;;;;;;;17.27;11.55;;;;;;;6.75;74.38;95397.31;4154106;28;20104;-55
2022/12/03 02:54:54;;;;;;;21.30;12.03;;;;;;;6.78;74.10;95391.03;4169559;28;20073;-55
2022/12/03 02:56:56;;;;;;;19.92;12.70;;;;;;;6.80;74.29;95388.28;4173033;28;20048;-58
2022/12/03 02:59:01;;;;;;;18.15;12.30;;;;;;;6.82;73.94;95381.19;4162542;28;20057;-55
2022/12/03 03:01:03;;;;;;;15.82;11.50;;;;;;;6.82;73.78;95379.44;4178040;28;20106;-54
2022/12/03 03:03:05;;;;;;;17.27;11.07;;;;;;;6.78;73.57;95393.66;4169842;28;20049;-53
2022/12/03 03:05:09;;;;;;;16.08;10.70;;;;;;;6.73;73.73;95385.34;4162072;28;20243;-54
2022/12/03 03:07:11;;;;;;;14.60;10.45;;;;;;;6.65;74.12;95391.16;4167420;28;20127;-54
2022/12/03 03:09:13;;;;;;;18.50;12.15;;;;;;;6.59;74.36;95393.41;4167846;28;20056;-53
2022/12/03 03:11:14;;;;;;;18.85;11.88;;;;;;;6.56;74.48;95387.50;4162399;28;20058;-58
2022/12/03 03:13:18;;;;;;;18.88;12.13;;;;;;;6.58;74.77;95389.94;4161690;28;20076;-55
2022/12/03 03:15:20;;;;;;;17.88;12.88;;;;;;;6.57;74.55;95389.13;4158684;28;20050;-54
2022/12/03 03:17:22;;;;;;;17.73;12.07;;;;;;;6.57;74.60;95380.50;4163944;28;20137;-54
2022/12/03 03:19:24;;;;;;;18.85;11.25;;;;;;;6.55;74.52;95380.59;4161024;28;20067;-57
2022/12/03 03:21:26;;;;;;;14.35;10.57;;;;;;;6.59;74.65;95383.81;4173597;28;20055;-56
2022/12/03 03:23:28;;;;;;;16.98;11.20;;;;;;;6.50;74.57;95381.94;4178294;28;20057;-58
2022/12/03 03:25:29;;;;;;;14.95;10.43;;;;;;;6.44;74.87;95377.19;4177544;28;20131;-56
2022/12/03 03:27:32;;;;;;;13.48;9.45;;;;;;;6.43;74.90;95373.75;4165445;28;20136;-54
2022/12/03 03:29:34;;;;;;;15.75;11.20;;;;;;;6.47;75.08;95377.75;4161658;28;20045;-55
2022/12/03 03:31:35;;;;;;;16.25;10.80;;;;;;;6.49;75.20;95373.25;4172036;28;20057;-55
2022/12/03 03:33:38;;;;;;;16.48;10.55;;;;;;;6.52;75.03;95375.66;4161870;28;20458;-55
2022/12/03 03:35:41;;;;;;;15.75;10.77;;;;;;;6.53;74.75;95376.47;4160282;28;20053;-55
2022/12/03 03:37:43;;;;;;;15.68;11.18;;;;;;;6.62;74.85;95385.34;4157142;28;20046;-56
2022/12/03 03:39:44;;;;;;;17.75;11.15;;;;;;;6.64;74.68;95381.66;4173998;28;20080;-57
2022/12/03 03:41:46;;;;;;;16.13;11.15;;;;;;;6.67;74.40;95388.44;4166446;28;20470;-55
2022/12/03 03:43:48;;;;;;;15.63;10.75;;;;;;;6.70;74.59;95380.38;4161282;28;20091;-55
2022/12/03 03:45:51;;;;;;;16.40;11.15;;;;;;;6.72;74.00;95388.91;4172331;28;20067;-55
2022/12/03 03:47:53;;;;;;;16.30;11.23;;;;;;;6.71;74.10;95387.22;4160241;28;20115;-60
2022/12/03 03:49:54;;;;;;;15.40;10.10;;;;;;;6.68;74.05;95395.28;4149238;28;20050;-55
2022/12/03 03:51:56;;;;;;;14.88;10.18;;;;;;;6.69;73.97;95392.56;4161428;28;20099;-55
2022/12/03 03:53:58;;;;;;;14.90;10.18;;;;;;;6.67;74.07;95391.03;4155781;28;20053;-58
2022/12/03 03:56:00;;;;;;;14.55;10.30;;;;;;;6.68;74.13;95395.28;4146159;28;20088;-59
2022/12/03 03:58:02;;;;;;;15.30;10.73;;;;;;;6.68;74.21;95392.69;4159251;28;20152;-58
2022/12/03 04:00:07;;;;;;;14.88;11.10;;;;;;;6.67;74.22;95393.66;4144893;28;20057;-57
2022/12/03 04:02:27;;;;;;;20.80;11.77;;;;;;;6.69;74.41;95395.19;4151027;28;20108;-55
2022/12/03 04:04:34;;;;;;;15.27;10.02;;;;;;;6.73;74.69;95390.53;4160921;28;20471;-56
2022/12/03 04:06:36;;;;;;;14.75;10.10;;;;;;;6.74;74.06;95400.03;4148975;28;20053;-53
2022/12/03 04:08:37;;;;;;;16.65;11.00;;;;;;;6.73;74.16;95400.97;4161642;28;20045;-56
2022/12/03 04:12:59;;;;;;;15.52;10.43;;;;;;;6.70;74.26;95406.41;4147903;28;20152;-56
2022/12/03 04:15:01;;;;;;;14.05;9.70;;;;;;;6.69;74.58;95418.63;4160679;28;20143;-54
2022/12/03 04:17:03;;;;;;;14.10;9.63;;;;;;;6.70;74.36;95414.22;4161537;28;20049;-55
2022/12/03 04:19:05;;;;;;;13.43;9.18;;;;;;;6.69;74.12;95417.75;4161439;28;20057;-54
2022/12/03 04:23:26;;;;;;;12.55;9.25;;;;;;;6.71;73.83;95426.28;4161333;28;20104;-56
2022/12/03 04:30:12;;;;;;;14.93;10.07;;;;;;;6.59;74.73;95416.84;4173080;28;20098;-55
2022/12/03 04:36:55;;;;;;;13.13;8.57;;;;;;;6.61;74.02;95426.19;4151598;28;20127;-61
2022/12/03 04:38:56;;;;;;;12.02;8.55;;;;;;;6.61;74.37;95426.19;4163893;28;20462;-59
2022/12/03 04:41:05;;;;;;;11.95;8.52;;;;;;;6.51;74.24;95430.41;4164556;28;20455;-55
2022/12/03 04:43:06;;;;;;;11.23;8.45;;;;;;;6.50;74.53;95432.19;4168023;28;20052;-55
2022/12/03 04:45:09;;;;;;;11.55;8.00;;;;;;;6.51;74.69;95426.03;4158681;28;20111;-53
2022/12/03 04:47:13;;;;;;;13.75;8.60;;;;;;;6.49;74.34;95430.53;4171903;28;20144;-58
2022/12/03 04:49:14;;;;;;;13.15;8.82;;;;;;;6.49;74.68;95425.31;4171443;28;20076;-53
2022/12/03 04:51:16;;;;;;;11.63;8.23;;;;;;;6.51;74.74;95422.63;4169617;28;20076;-55
2022/12/03 04:53:18;;;;;;;13.05;9.00;;;;;;;6.55;74.74;95419.66;4164934;28;20426;-55
2022/12/03 04:55:19;;;;;;;12.60;8.50;;;;;;;6.54;74.16;95417.19;4173105;28;20045;-54
2022/12/03 04:57:21;;;;;;;11.15;8.15;;;;;;;6.57;74.55;95420.38;4165213;28;20057;-56
2022/12/03 04:59:23;;;;;;;18.70;9.77;;;;;;;6.57;73.92;95419.53;4159355;28;20053;-55
2022/12/03 05:01:24;;;;;;;13.05;9.23;;;;;;;6.54;74.24;95417.19;4171141;28;20128;-52
2022/12/03 05:03:26;;;;;;;11.68;8.40;;;;;;;6.55;73.85;95421.44;4164844;28;20058;-53
2022/12/03 05:05:28;;;;;;;11.52;8.35;;;;;;;6.49;74.15;95417.50;4156955;28;20075;-55
2022/12/03 05:07:30;;;;;;;12.90;8.45;;;;;;;6.53;74.49;95424.16;4156830;28;20053;-57
2022/12/03 05:09:32;;;;;;;12.13;9.23;;;;;;;6.56;74.36;95429.13;4159886;28;20049;-56
2022/12/03 05:11:33;;;;;;;15.00;8.80;;;;;;;6.57;74.26;95428.19;4159516;28;20052;-56
2022/12/03 05:13:35;;;;;;;17.20;8.70;;;;;;;6.56;74.17;95430.91;4168296;28;20080;-53
2022/12/03 05:15:37;;;;;;;11.13;7.97;;;;;;;6.55;73.78;95427.47;4159623;28;20498;-52
2022/12/03 05:17:38;;;;;;;11.00;7.63;;;;;;;6.51;73.95;95428.63;4168816;28;20467;-50
2022/12/03 05:22:00;;;;;;;11.07;7.40;;;;;;;6.53;74.27;95433.75;4153293;28;20065;-53
2022/12/03 05:24:02;;;;;;;10.55;7.65;;;;;;;6.54;74.24;95435.41;4143725;28;20054;-59
2022/12/03 05:26:04;;;;;;;10.25;7.82;;;;;;;6.58;74.07;95431.59;4157584;28;20121;-56
2022/12/03 05:28:06;;;;;;;10.13;7.93;;;;;;;6.60;74.03;95434.91;4159346;28;20064;-52
2022/12/03 05:30:08;;;;;;;10.68;7.45;;;;;;;6.57;73.98;95433.38;4159819;28;20053;-52
2022/12/03 05:32:09;;;;;;;12.43;7.93;;;;;;;6.57;73.84;95436.00;4165546;28;20049;-54
2022/12/03 05:34:11;;;;;;;10.35;7.13;;;;;;;6.60;73.92;95442.72;4167029;28;20119;-54
2022/12/03 05:36:13;;;;;;;12.00;6.78;;;;;;;6.57;73.87;95440.38;4147610;28;20112;-55
2022/12/03 05:38:14;;;;;;;8.85;6.47;;;;;;;6.53;73.86;95444.16;4156605;28;20053;-56
2022/12/03 05:40:16;;;;;;;8.50;6.35;;;;;;;6.50;74.08;95432.19;4150640;28;20072;-57
2022/12/03 05:44:38;;;;;;;10.45;6.80;;;;;;;6.53;73.96;95449.34;4150949;28;20120;-56
2022/12/03 05:46:40;;;;;;;8.35;6.68;;;;;;;6.54;74.16;95438.84;4161323;28;20508;-57
2022/12/03 05:48:41;;;;;;;10.80;7.05;;;;;;;6.57;73.63;95442.97;4161864;28;20049;-55
2022/12/03 05:50:45;;;;;;;13.80;6.90;;;;;;;6.58;73.63;95436.81;4159681;28;20080;-55
2022/12/03 05:52:46;;;;;;;8.68;6.55;;;;;;;6.60;73.62;95449.72;4160784;28;20093;-55
2022/12/03 05:54:48;;;;;;;8.65;6.05;;;;;;;6.56;73.62;95449.13;4159725;28;20065;-54
2022/12/03 05:56:50;;;;;;;9.80;6.30;;;;;;;6.56;74.03;95455.16;4161800;28;20423;-55
2022/12/03 05:58:52;;;;;;;9.40;6.32;;;;;;;6.57;74.02;95453.38;4160626;28;20060;-54
2022/12/03 06:00:53;;;;;;;10.88;6.95;;;;;;;6.62;73.58;95458.25;4159382;28;20037;-55
2022/12/03 06:02:55;;;;;;;8.32;6.32;;;;;;;6.62;73.40;95464.28;4161716;28;20056;-53
2022/12/03 06:04:57;;;;;;;7.25;5.88;;;;;;;6.68;73.54;95468.19;4163132;28;20410;-55
2022/12/03 06:06:58;;;;;;;9.05;6.50;;;;;;;6.73;73.61;95466.06;4163922;28;20056;-57
2022/12/03 06:09:00;;;;;;;8.32;6.30;;;;;;;6.75;73.29;95464.16;4164684;28;20425;-55
2022/12/03 06:11:02;;;;;;;10.50;7.00;;;;;;;6.75;73.08;95467.63;4164268;28;20555;-57
2022/12/03 06:13:04;;;;;;;10.05;6.75;;;;;;;6.74;72.88;95468.56;4161897;28;20057;-56
2022/12/03 06:15:06;;;;;;;12.80;6.78;;;;;;;6.76;73.33;95471.06;4163963;28;20060;-55
2022/12/03 06:17:08;;;;;;;10.15;7.18;;;;;;;6.76;73.14;95476.25;4160571;28;20046;-55
2022/12/03 06:19:09;;;;;;;9.13;6.32;;;;;;;6.77;72.91;95477.91;4156548;28;20107;-56
2022/12/03 06:21:11;;;;;;;9.85;6.82;;;;;;;6.76;73.46;95471.06;4162487;28;20521;-53
2022/12/03 06:23:13;;;;;;;9.68;7.05;;;;;;;6.86;74.16;95477.22;4166748;28;20064;-56
2022/12/03 06:25:15;;;;;;;12.68;7.18;;;;;;;6.89;73.69;95482.19;4170424;28;20057;-56
2022/12/03 06:27:17;;;;;;;9.65;6.63;;;;;;;6.85;73.19;95485.16;4162962;28;20150;-56
2022/12/03 06:29:18;;;;;;;10.25;6.75;;;;;;;6.81;73.18;95481.94;4158277;28;20061;-52
2022/12/03 06:31:20;;;;;;;10.98;6.88;;;;;;;6.75;73.23;95475.44;4173659;28;20148;-58
2022/12/03 06:33:22;;;;;;;13.82;6.78;;;;;;;6.82;72.94;95473.19;4162848;28;20055;-56
2022/12/03 06:35:24;;;;;;;9.93;7.07;;;;;;;6.83;72.87;95481.81;4162703;28;20076;-55
2022/12/03 06:37:25;;;;;;;11.05;7.03;;;;;;;6.84;73.22;95479.13;4169629;28;20053;-57
2022/12/03 06:39:27;;;;;;;8.65;6.38;;;;;;;6.88;73.01;95483.16;4170016;28;20156;-58
2022/12/03 06:41:28;;;;;;;9.00;6.60;;;;;;;6.88;72.83;95477.94;4162397;28;20446;-57
2022/12/03 06:43:30;;;;;;;10.38;7.20;;;;;;;6.87;72.78;95481.47;4161465;28;20057;-54
2022/12/03 06:45:32;;;;;;;9.35;6.85;;;;;;;6.88;73.13;95485.75;4161844;28;20093;-55
2022/12/03 06:47:33;;;;;;;9.52;6.82;;;;;;;6.91;73.03;95480.28;4162317;28;20470;-53
2022/12/03 06:49:35;;;;;;;9.65;7.15;;;;;;;6.93;72.92;95480.19;4152751;28;20077;-54
2022/12/03 06:51:37;;;;;;;8.75;6.63;;;;;;;6.95;72.57;95481.72;4158714;28;20131;-53
2022/12/03 06:53:39;;;;;;;12.90;7.32;;;;;;;6.96;73.00;95480.75;4165880;28;20053;-56
2022/12/03 06:55:40;;;;;;;9.23;6.80;;;;;;;6.94;73.08;95463.59;4172056;28;20053;-58
2022/12/03 06:57:42;;;;;;;9.35;6.70;;;;;;;6.92;73.05;95474.13;4161489;28;20057;-54
2022/12/03 06:59:44;;;;;;;10.80;6.85;;;;;;;6.90;72.98;95477.81;4162705;28;20073;-53
2022/12/03 07:01:45;;;;;;;9.10;6.70;;;;;;;6.89;73.31;95482.19;4178208;28;20429;-53
2022/12/03 07:03:47;;;;;;;10.35;6.68;;;;;;;6.88;73.12;95479.69;4163932;28;20054;-53
2022/12/03 07:05:49;;;;;;;8.73;6.35;;;;;;;6.80;73.01;95477.69;4157350;28;20045;-53
2022/12/03 07:07:51;;;;;;;8.27;6.15;;;;;;;6.76;73.46;95487.50;4161628;28;20050;-52
2022/12/03 07:09:53;;;;;;;8.95;6.85;;;;;;;6.82;73.55;95485.38;4162262;28;20424;-53
2022/12/03 07:11:54;;;;;;;12.48;6.85;;;;;;;6.81;72.92;95489.75;4169855;28;20041;-54
2022/12/03 07:14:00;;;;;;;9.05;6.85;;;;;;;6.84;73.51;95496.50;4166215;28;20067;-56
2022/12/03 07:16:21;;;;;;;10.30;6.63;;;;;;;6.84;73.05;95492.13;4153009;28;20056;-52
2022/12/03 07:18:23;;;;;;;10.07;7.32;;;;;;;6.86;73.04;95497.22;4169439;28;20049;-52
2022/12/03 07:20:25;;;;;;;9.95;7.03;;;;;;;6.82;73.08;95495.78;4159361;28;20050;-51
2022/12/03 07:22:26;;;;;;;8.02;6.38;;;;;;;6.80;73.31;95501.13;4165428;28;20057;-55
2022/12/03 07:24:28;;;;;;;9.00;7.10;;;;;;;6.77;73.36;95498.75;4166860;28;20049;-52
2022/12/03 07:26:30;;;;;;;8.70;6.45;;;;;;;6.76;73.24;95508.34;4162098;28;20060;-54
2022/12/03 07:28:32;;;;;;;9.18;5.97;;;;;;;6.72;73.42;95498.28;4160273;28;20060;-51
2022/12/03 07:30:33;;;;;;;9.65;7.07;;;;;;;6.72;73.47;95503.47;4161642;28;20045;-51
2022/12/03 07:32:35;;;;;;;11.60;6.95;;;;;;;6.72;74.02;95500.88;4161729;28;20073;-49
2022/12/03 07:34:37;;;;;;;8.15;6.00;;;;;;;6.75;73.50;95505.84;4173708;28;20057;-52
2022/12/03 07:36:39;;;;;;;9.60;6.18;;;;;;;6.73;73.88;95516.38;4161527;28;20065;-50
2022/12/03 07:38:40;;;;;;;8.80;6.53;;;;;;;6.76;73.17;95512.72;4161501;28;20040;-52
2022/12/03 07:40:42;;;;;;;9.73;6.38;;;;;;;6.74;73.54;95510.22;4174036;28;20049;-52
2022/12/03 07:42:44;;;;;;;9.88;6.60;;;;;;;6.74;73.22;95515.44;4166279;28;20049;-54
2022/12/03 07:44:45;;;;;;;8.57;6.13;;;;;;;6.76;72.93;95504.91;4163643;28;20049;-52
2022/12/03 07:46:47;;;;;;;9.48;6.70;;;;;;;6.80;73.56;95508.94;4163540;28;20111;-49
2022/12/03 07:48:49;;;;;;;10.77;6.35;;;;;;;6.82;72.80;95507.06;4154719;28;20041;-51
2022/12/03 07:50:51;;;;;;;10.30;6.57;;;;;;;6.85;72.87;95519.00;4167239;28;20053;-55
2022/12/03 07:52:53;;;;;;;8.18;5.82;;;;;;;6.88;72.94;95517.00;4170060;28;20139;-54
2022/12/03 07:54:55;;;;;;;8.95;5.90;;;;;;;6.91;72.75;95514.16;4156432;28;20129;-52
2022/12/03 07:56:57;;;;;;;8.48;6.18;;;;;;;6.95;72.45;95512.97;4161530;28;20045;-49
2022/12/03 07:59:02;;;;;;;11.50;6.72;;;;;;;7.03;72.38;95507.16;4159228;28;20046;-54
2022/12/03 08:01:04;;;;;;;8.85;5.85;;;;;;;7.06;71.83;95511.34;4169862;28;20076;-55
2022/12/03 08:03:05;;;;;;;8.63;6.45;;;;;;;7.04;72.32;95516.66;4168189;28;20394;-52
2022/12/03 08:05:07;;;;;;;12.05;7.18;;;;;;;7.06;72.79;95509.56;4161804;28;20140;-53
2022/12/03 08:07:09;;;;;;;10.13;6.13;;;;;;;7.13;72.19;95515.94;4154294;28;20115;-52
2022/12/03 08:09:11;;;;;;;7.30;5.03;;;;;;;7.15;71.79;95521.06;4169594;28;20126;-52
2022/12/03 08:11:16;;;;;;;7.93;5.13;;;;;;;7.09;71.50;95516.31;4156817;28;20585;-51
2022/12/03 08:13:18;;;;;;;7.60;5.03;;;;;;;7.11;71.98;95517.03;4154276;28;20057;-48
2022/12/03 08:15:25;;;;;;;7.97;5.18;;;;;;;7.10;71.88;95520.59;4166631;28;20131;-51
2022/12/03 08:17:27;;;;;;;9.27;6.47;;;;;;;7.16;71.78;95522.69;4166927;28;20132;-51
2022/12/03 08:19:28;;;;;;;9.10;6.25;;;;;;;7.23;71.28;95521.28;4159708;28;20643;-57
2022/12/03 08:21:33;;;;;;;9.77;5.95;;;;;;;7.26;70.93;95523.66;4159469;28;20050;-50
2022/12/03 08:23:35;;;;;;;7.50;5.28;;;;;;;7.27;70.54;95525.31;4159426;28;20506;-51
2022/12/03 08:25:37;;;;;;;7.15;5.13;;;;;;;7.32;70.58;95533.59;4151551;28;20057;-54
2022/12/03 08:27:38;;;;;;;6.43;4.75;;;;;;;7.31;69.72;95531.97;4157311;28;20060;-53
2022/12/03 08:29:40;;;;;;;10.68;4.80;;;;;;;7.30;70.32;95537.28;4172137;28;20143;-54
2022/12/03 08:31:46;;;;;;;7.47;4.88;;;;;;;7.32;69.85;95536.22;4175996;28;20049;-53
2022/12/03 08:33:50;;;;;;;8.10;5.60;;;;;;;7.28;69.96;95534.78;4177117;28;20048;-52
2022/12/03 08:35:52;;;;;;;;;;;;;;;7.31;69.16;95541.53;4168383;28;20045;-49
2022/12/03 08:38:01;;;;;;;6.85;4.95;;;;;;;7.35;69.08;95538.56;4156205;28;19968;-53
2022/12/03 08:40:18;;;;;;;9.95;5.75;;;;;;;7.36;69.25;95532.41;4148418;28;20081;-53
2022/12/03 08:42:43;;;;;;;7.35;5.13;;;;;;;7.43;69.23;95537.16;4147925;28;20045;-54
2022/12/03 08:44:44;;;;;;;;;;;;;;;7.41;69.08;95544.28;4160768;28;20053;-56
2022/12/03 08:46:59;;;;;;;7.60;5.20;;;;;;;7.42;70.04;95545.91;4160375;28;19921;-53
2022/12/03 08:49:00;;;;;;;;;;;;;;;7.49;69.46;95541.91;4161494;28;20049;-53
2022/12/03 08:51:10;;;;;;;6.82;5.00;;;;;;;7.54;69.69;95539.75;4160634;28;20011;-52
2022/12/03 08:53:11;;;;;;;7.55;4.95;;;;;;;7.57;68.87;95532.53;4173643;28;20083;-52
2022/12/03 08:55:47;;;;;;;7.47;5.18;;;;;;;7.58;68.55;95541.19;4176506;28;20049;-53
2022/12/03 08:57:48;;;;;;;;;;;;;;;7.61;69.29;95535.72;4162857;28;20620;-53
2022/12/03 08:59:53;;;;;;;8.85;5.38;;;;;;;7.62;68.78;95534.78;4160812;28;19960;-52
2022/12/03 09:01:57;;;;;;;10.07;5.78;;;;;;;7.57;69.37;95532.53;4159098;28;20184;-53
2022/12/03 09:04:15;;;;;;;8.43;5.15;;;;;;;7.49;68.88;95531.47;4160386;28;20045;-52
2022/12/03 09:06:17;;;;;;;8.30;6.05;;;;;;;7.45;68.93;95536.09;4159228;28;20056;-52
2022/12/03 09:08:18;;;;;;;8.38;5.70;;;;;;;7.48;69.27;95541.06;4160616;28;20386;-51
2022/12/03 09:10:20;;;;;;;10.95;6.22;;;;;;;7.45;69.24;95537.88;4160451;28;20209;-49
2022/12/03 09:12:22;;;;;;;8.70;6.78;;;;;;;7.47;69.52;95533.38;4156199;28;20053;-49
2022/12/03 09:14:23;;;;;;;9.05;5.88;;;;;;;7.50;69.13;95531.34;4157750;28;20057;-54
2022/12/03 09:16:25;;;;;;;8.10;5.93;;;;;;;7.52;69.12;95533.84;4149229;28;20053;-54
2022/12/03 09:18:27;;;;;;;8.68;6.00;;;;;;;7.57;69.05;95536.91;4155466;28;20118;-54
2022/12/03 09:20:28;;;;;;;7.07;5.45;;;;;;;7.63;68.90;95535.59;4168011;28;20063;-50
2022/12/03 09:22:30;;;;;;;8.23;5.38;;;;;;;7.68;68.52;95529.09;4165651;28;20060;-51
2022/12/03 09:24:32;;;;;;;10.70;6.32;;;;;;;7.68;69.00;95521.25;4161514;28;20149;-53
2022/12/03 09:26:34;;;;;;;10.93;7.80;;;;;;;7.63;69.30;95522.56;4175545;28;20098;-50
2022/12/03 09:28:35;;;;;;;10.23;7.00;;;;;;;7.57;69.06;95534.28;4159874;28;21459;-54
2022/12/03 09:30:37;;;;;;;8.55;5.68;;;;;;;7.55;68.87;95528.38;4159838;28;20041;-55
2022/12/03 09:32:39;;;;;;;9.65;6.10;;;;;;;7.48;68.47;95529.81;4159968;28;20107;-54
2022/12/03 09:34:41;;;;;;;11.95;6.43;;;;;;;7.44;69.02;95533.59;4173294;28;20053;-50
2022/12/03 09:36:43;;;;;;;9.50;6.53;;;;;;;7.48;68.85;95530.63;4173149;28;20049;-50
2022/12/03 09:38:44;;;;;;;8.25;5.85;;;;;;;7.51;69.46;95521.75;4165006;28;20063;-54
2022/12/03 09:40:48;;;;;;;;;;;;;;;7.51;69.36;95524.38;4165989;28;20114;-52
2022/12/03 09:42:50;;;;;;;9.45;6.45;;;;;;;7.54;69.55;95514.50;4162972;28;19999;-55
2022/12/03 09:44:52;;;;;;;8.63;6.60;;;;;;;7.56;69.22;95517.00;4154642;28;20085;-50
2022/12/03 09:46:58;;;;;;;8.27;6.17;;;;;;;7.58;69.41;95515.94;4153228;28;20501;-54
2022/12/03 09:49:01;;;;;;;9.18;6.40;;;;;;;7.60;69.47;95515.81;4154017;28;20279;-55
2022/12/03 09:51:03;;;;;;;10.90;6.40;;;;;;;7.63;69.02;95515.56;4157337;28;20119;-50
2022/12/03 09:53:04;;;;;;;11.63;7.63;;;;;;;7.63;69.28;95519.94;4160076;28;20089;-51
2022/12/03 09:55:22;;;;;;;10.38;6.93;;;;;;;7.67;69.14;95514.38;4162616;28;20049;-49
2022/12/03 09:57:24;;;;;;;8.65;6.55;;;;;;;7.69;68.66;95507.25;4159551;28;20056;-49
2022/12/03 09:59:29;;;;;;;9.27;6.43;;;;;;;7.73;68.98;95503.47;4165979;28;20045;-55
2022/12/03 10:01:31;;;;;;;9.23;7.00;;;;;;;7.70;68.90;95498.50;4151278;28;20049;-52